createdAt,value
2022-12-19T00:01:55.486Z,19.47
2022-12-19T00:04:22.507Z,15.73
2022-12-19T00:06:49.520Z,18.40
2022-12-19T00:09:16.590Z,17.43
2022-12-19T00:11:43.594Z,15.80
2022-12-19T00:14:11.821Z,17.10
2022-12-19T00:16:38.839Z,18.00
2022-12-19T00:19:07.873Z,16.67
2022-12-19T00:21:35.497Z,19.57
2022-12-19T00:24:18.399Z,18.10
2022-12-19T00:26:49.025Z,15.00
2022-12-19T00:29:16.287Z,15.73
2022-12-19T00:31:43.725Z,17.00
2022-12-19T00:34:11.012Z,17.00
2022-12-19T00:36:40.105Z,15.60
2022-12-19T00:39:08.768Z,16.90
2022-12-19T00:41:41.691Z,15.33
2022-12-19T00:44:15.527Z,16.90
2022-12-19T00:46:43.012Z,17.40
2022-12-19T00:49:14.114Z,16.80
2022-12-19T00:51:41.187Z,14.70
2022-12-19T00:54:10.921Z,17.90
2022-12-19T00:56:38.931Z,15.13
2022-12-19T00:59:10.392Z,13.97
2022-12-19T01:01:41.362Z,15.27
2022-12-19T01:04:30.781Z,15.83
2022-12-19T01:07:02.118Z,14.87
2022-12-19T01:09:33.772Z,14.77
2022-12-19T01:12:20.484Z,15.93
2022-12-19T01:15:03.758Z,14.60
2022-12-19T01:17:36.990Z,13.37
2022-12-19T01:20:14.506Z,12.07
2022-12-19T01:22:41.492Z,13.50
2022-12-19T01:25:08.801Z,13.90
2022-12-19T01:27:38.616Z,14.50
2022-12-19T01:30:07.474Z,15.67
2022-12-19T01:32:36.298Z,13.67
2022-12-19T01:35:04.338Z,12.10
2022-12-19T01:37:31.246Z,13.70
2022-12-19T01:39:58.504Z,14.10
2022-12-19T01:42:25.414Z,15.07
2022-12-19T01:45:07.691Z,15.20
2022-12-19T01:48:04.182Z,15.03
2022-12-19T01:50:59.074Z,14.73
2022-12-19T01:53:37.329Z,13.03
2022-12-19T01:56:17.395Z,13.47
2022-12-19T01:58:47.531Z,14.57
2022-12-19T02:01:17.892Z,15.23
2022-12-19T02:03:45.904Z,13.83
2022-12-19T02:06:16.341Z,14.17
2022-12-19T02:08:47.491Z,14.03
2022-12-19T02:11:14.671Z,15.23
2022-12-19T02:13:42.076Z,13.27
2022-12-19T02:16:51.849Z,13.07
2022-12-19T02:19:55.572Z,15.63
2022-12-19T02:23:00.628Z,12.13
2022-12-19T02:25:56.648Z,13.23
2022-12-19T02:29:16.927Z,11.67
2022-12-19T02:31:53.191Z,12.87
2022-12-19T02:34:32.788Z,12.00
2022-12-19T02:37:14.208Z,11.67
2022-12-19T02:40:21.868Z,11.80
2022-12-19T02:42:58.309Z,12.93
2022-12-19T02:45:30.976Z,13.60
2022-12-19T02:48:04.518Z,12.40
2022-12-19T02:50:44.634Z,11.90
2022-12-19T02:53:16.135Z,12.97
2022-12-19T02:56:23.338Z,11.10
2022-12-19T02:59:10.138Z,10.77
2022-12-19T03:01:52.964Z,10.00
2022-12-19T03:04:28.949Z,10.33
2022-12-19T03:07:18.293Z,10.70
2022-12-19T03:10:21.866Z,10.20
2022-12-19T03:13:04.021Z,9.67
2022-12-19T03:15:32.889Z,9.83
2022-12-19T03:18:01.798Z,12.50
2022-12-19T03:21:12.745Z,9.83
2022-12-19T03:23:41.258Z,10.60
2022-12-19T03:26:21.846Z,9.60
2022-12-19T03:29:15.271Z,11.37
2022-12-19T03:31:45.378Z,10.80
2022-12-19T03:34:21.426Z,10.43
2022-12-19T03:36:56.565Z,9.40
2022-12-19T03:39:26.515Z,9.83
2022-12-19T03:42:13.764Z,11.23
2022-12-19T03:44:43.354Z,10.10
2022-12-19T03:47:42.046Z,9.27
2022-12-19T03:50:10.066Z,9.93
2022-12-19T03:52:52.285Z,10.47
2022-12-19T03:55:22.614Z,10.90
2022-12-19T03:58:09.772Z,10.13
2022-12-19T04:00:39.270Z,11.00
2022-12-19T04:03:08.391Z,9.97
2022-12-19T04:05:37.733Z,9.60
2022-12-19T04:08:08.363Z,10.47
2022-12-19T04:11:08.154Z,10.20
2022-12-19T04:14:02.468Z,10.40
2022-12-19T04:16:48.741Z,11.60
2022-12-19T04:19:27.365Z,10.57
2022-12-19T04:22:12.524Z,9.57
2022-12-19T04:24:42.155Z,10.93
2022-12-19T04:27:11.263Z,10.07
2022-12-19T04:29:39.922Z,9.53
2022-12-19T04:32:08.953Z,10.80
2022-12-19T04:34:38.933Z,11.40
2022-12-19T04:37:10.332Z,10.17
2022-12-19T04:39:37.500Z,10.40
2022-12-19T04:42:04.664Z,11.30
2022-12-19T04:44:31.761Z,13.10
2022-12-19T04:46:58.839Z,12.00
2022-12-19T04:49:25.988Z,9.70
2022-12-19T04:51:53.025Z,10.43
2022-12-19T04:54:21.582Z,11.17
2022-12-19T04:56:48.666Z,12.07
2022-12-19T04:59:15.791Z,13.67
2022-12-19T05:01:42.895Z,12.20
2022-12-19T05:04:10.054Z,13.37
2022-12-19T05:06:38.306Z,12.80
2022-12-19T05:09:05.491Z,11.80
2022-12-19T05:11:32.646Z,12.27
2022-12-19T05:14:00.044Z,11.60
2022-12-19T05:16:27.244Z,11.77
2022-12-19T05:18:54.592Z,12.80
2022-12-19T05:21:23.096Z,12.43
2022-12-19T05:23:51.422Z,11.80
2022-12-19T05:26:18.701Z,11.70
2022-12-19T05:28:45.704Z,12.10
2022-12-19T05:31:19.934Z,14.03
2022-12-19T05:33:48.787Z,11.40
2022-12-19T05:36:17.491Z,13.07
2022-12-19T05:38:44.971Z,12.67
2022-12-19T05:41:21.886Z,12.67
2022-12-19T05:43:55.669Z,13.30
2022-12-19T05:46:23.812Z,15.83
2022-12-19T05:48:51.661Z,12.10
2022-12-19T05:51:19.516Z,13.00
2022-12-19T05:53:47.033Z,13.80
2022-12-19T05:56:18.538Z,12.70
2022-12-19T05:58:46.473Z,13.17
2022-12-19T06:03:49.684Z,14.37
2022-12-19T06:06:20.411Z,13.37
2022-12-19T06:08:47.685Z,13.67
2022-12-19T06:11:15.316Z,13.10
2022-12-19T06:13:42.533Z,14.50
2022-12-19T06:16:18.707Z,13.53
2022-12-19T06:18:46.829Z,13.00
2022-12-19T06:21:17.707Z,14.40
2022-12-19T06:23:45.605Z,13.43
2022-12-19T06:26:19.368Z,14.13
2022-12-19T06:28:49.405Z,14.00
2022-12-19T06:31:17.095Z,14.00
2022-12-19T06:33:44.754Z,14.90
2022-12-19T06:36:26.019Z,15.07
2022-12-19T06:38:54.777Z,14.77
2022-12-19T06:41:40.729Z,13.73
2022-12-19T06:44:12.090Z,13.47
2022-12-19T06:46:41.387Z,16.57
2022-12-19T06:49:10.078Z,13.80
2022-12-19T06:51:37.580Z,15.20
2022-12-19T06:54:05.202Z,14.53
2022-12-19T06:56:40.901Z,15.30
2022-12-19T06:59:12.032Z,15.40
2022-12-19T07:01:57.087Z,16.33
2022-12-19T07:04:33.427Z,15.27
2022-12-19T07:07:01.277Z,13.17
2022-12-19T07:09:29.758Z,15.13
2022-12-19T07:11:57.077Z,14.40
2022-12-19T07:14:24.249Z,15.07
2022-12-19T07:16:53.165Z,15.97
2022-12-19T07:19:22.103Z,14.40
2022-12-19T07:21:49.443Z,15.87
2022-12-19T07:24:16.674Z,17.10
2022-12-19T07:26:45.111Z,15.63
2022-12-19T07:29:12.766Z,16.30
2022-12-19T07:31:39.899Z,15.70
2022-12-19T07:34:06.999Z,16.10
2022-12-19T07:36:34.195Z,15.10
2022-12-19T07:39:01.798Z,16.87
2022-12-19T07:41:28.896Z,17.60
2022-12-19T07:43:56.004Z,17.50
2022-12-19T07:46:23.267Z,16.90
2022-12-19T07:48:50.758Z,17.47
2022-12-19T07:51:17.861Z,16.70
2022-12-19T07:53:44.927Z,15.70
2022-12-19T07:56:12.059Z,16.70
2022-12-19T07:58:39.253Z,18.10
2022-12-19T08:01:06.502Z,15.80
2022-12-19T08:03:35.984Z,16.17
2022-12-19T08:06:06.489Z,15.20
2022-12-19T08:08:34.695Z,16.03
2022-12-19T08:11:27.278Z,15.60
2022-12-19T08:13:55.237Z,15.87
2022-12-19T08:16:25.423Z,14.97
2022-12-19T08:18:53.648Z,16.97
2022-12-19T08:21:21.283Z,16.57
2022-12-19T08:23:48.815Z,15.20
2022-12-19T08:26:24.869Z,14.90
2022-12-19T08:28:58.091Z,15.77
2022-12-19T08:31:27.408Z,15.90
2022-12-19T08:33:57.273Z,15.47
2022-12-19T08:36:24.650Z,16.30
2022-12-19T08:38:52.468Z,13.63
2022-12-19T08:41:19.844Z,14.60
2022-12-19T08:43:54.144Z,16.93
2022-12-19T08:46:22.647Z,15.03
2022-12-19T08:48:50.309Z,15.93
2022-12-19T08:51:18.173Z,18.00
2022-12-19T08:53:46.731Z,16.70
2022-12-19T08:56:20.375Z,15.47
2022-12-19T08:58:48.063Z,16.77
2022-12-19T09:01:24.200Z,14.50
2022-12-19T09:04:03.912Z,16.77
2022-12-19T09:06:38.667Z,16.90
2022-12-19T09:09:05.913Z,17.23
2022-12-19T09:11:33.451Z,17.13
2022-12-19T09:14:05.075Z,19.20
2022-12-19T09:16:32.301Z,17.53
2022-12-19T09:18:59.452Z,18.07
2022-12-19T09:21:29.292Z,17.23
2022-12-19T09:24:07.066Z,17.90
2022-12-19T09:26:36.193Z,19.30
2022-12-19T09:29:08.256Z,17.43
2022-12-19T09:31:47.530Z,17.90
2022-12-19T09:34:16.373Z,18.50
2022-12-19T09:36:43.575Z,19.50
2022-12-19T09:39:12.438Z,19.67
2022-12-19T09:41:42.264Z,19.57
2022-12-19T09:44:52.790Z,19.13
2022-12-19T09:47:29.473Z,20.20
2022-12-19T09:50:00.060Z,19.83
2022-12-19T09:52:44.615Z,20.10
2022-12-19T09:55:24.828Z,19.80
2022-12-19T09:58:20.722Z,21.47
2022-12-19T10:01:00.231Z,20.97
2022-12-19T10:03:42.541Z,19.93
2022-12-19T10:07:21.157Z,19.43
2022-12-19T10:10:38.380Z,17.60
2022-12-19T10:12:57.088Z,17.63
2022-12-19T10:15:44.042Z,20.70
2022-12-19T10:18:42.338Z,19.07
2022-12-19T10:22:18.387Z,18.17
2022-12-19T10:25:02.038Z,18.30
2022-12-19T10:27:59.559Z,21.00
2022-12-19T10:30:32.327Z,18.53
2022-12-19T10:33:23.323Z,19.27
2022-12-19T10:35:57.517Z,20.00
2022-12-19T10:38:46.282Z,18.30
2022-12-19T10:41:26.410Z,18.20
2022-12-19T10:44:02.655Z,18.67
2022-12-19T10:46:38.435Z,20.33
2022-12-19T10:49:17.021Z,19.07
2022-12-19T10:51:56.461Z,17.57
2022-12-19T10:54:30.712Z,18.17
2022-12-19T10:57:28.380Z,18.00
2022-12-19T11:00:00.998Z,19.13
2022-12-19T11:02:44.698Z,18.20
2022-12-19T11:05:51.247Z,16.17
2022-12-19T11:08:30.870Z,18.30
2022-12-19T11:13:33.810Z,19.23
2022-12-19T11:19:52.795Z,18.07
2022-12-19T11:22:58.036Z,17.90
2022-12-19T11:29:16.270Z,16.60
2022-12-19T11:29:41.739Z,19.33
2022-12-19T11:30:09.921Z,19.37
2022-12-19T11:30:48.858Z,18.73
2022-12-19T11:34:26.532Z,19.73
2022-12-19T11:37:26.894Z,18.10
2022-12-19T11:40:05.527Z,19.47
2022-12-19T11:43:25.573Z,18.93
2022-12-19T11:45:57.829Z,19.13
2022-12-19T11:48:49.878Z,18.50
2022-12-19T11:51:48.929Z,18.50
2022-12-19T11:54:32.991Z,18.70
2022-12-19T11:57:00.747Z,19.77
2022-12-19T11:59:38.678Z,18.43
2022-12-19T12:02:58.746Z,19.20
2022-12-19T12:05:48.302Z,18.50
2022-12-19T12:10:12.004Z,19.67
2022-12-19T12:18:50.504Z,20.50
2022-12-19T12:26:55.553Z,18.27
2022-12-19T12:31:01.331Z,18.23
2022-12-19T12:31:09.677Z,20.03
2022-12-19T12:31:58.468Z,19.23
2022-12-19T12:32:06.510Z,20.47
2022-12-19T12:35:38.054Z,20.47
2022-12-19T12:42:04.605Z,22.57
2022-12-19T12:44:45.284Z,19.07
2022-12-19T12:47:22.560Z,21.17
2022-12-19T12:49:55.901Z,20.07
2022-12-19T12:52:45.883Z,19.67
2022-12-19T12:55:15.546Z,20.77
2022-12-19T12:57:42.693Z,20.73
2022-12-19T13:00:19.596Z,21.47
2022-12-19T13:03:16.552Z,19.33
2022-12-19T13:05:46.759Z,18.60
2022-12-19T13:08:48.950Z,20.83
2022-12-19T13:12:04.488Z,19.03
2022-12-19T13:14:34.729Z,20.50
2022-12-19T13:17:18.281Z,20.60
2022-12-19T13:20:03.580Z,19.60
2022-12-19T13:22:31.468Z,20.90
2022-12-19T13:25:00.605Z,19.37
2022-12-19T13:27:38.760Z,20.47
2022-12-19T13:30:14.956Z,21.57
2022-12-19T13:32:42.005Z,19.40
2022-12-19T13:36:05.195Z,19.60
2022-12-19T13:39:59.350Z,21.10
2022-12-19T13:41:24.264Z,21.50
2022-12-19T13:43:51.606Z,22.30
2022-12-19T13:46:47.997Z,22.00
2022-12-19T13:49:19.443Z,20.67
2022-12-19T13:51:49.084Z,21.00
2022-12-19T13:54:24.893Z,22.37
2022-12-19T13:56:54.308Z,22.50
2022-12-19T13:59:26.499Z,21.33
2022-12-19T14:01:55.083Z,23.10
2022-12-19T14:04:30.397Z,22.23
2022-12-19T14:07:06.333Z,21.40
2022-12-19T14:11:36.817Z,22.30
2022-12-19T14:13:54.750Z,22.07
2022-12-19T14:15:52.405Z,23.10
2022-12-19T14:18:43.178Z,21.37
2022-12-19T14:22:04.926Z,22.23
2022-12-19T14:24:25.015Z,22.03
2022-12-19T14:28:24.584Z,23.47
2022-12-19T14:30:30.317Z,23.43
2022-12-19T14:33:44.433Z,24.70
2022-12-19T14:36:10.603Z,23.27
2022-12-19T14:39:27.377Z,23.00
2022-12-19T14:41:49.137Z,23.57
2022-12-19T14:52:08.128Z,22.50
2022-12-19T14:53:51.899Z,23.27
2022-12-19T14:54:25.678Z,22.97
2022-12-19T14:54:27.384Z,23.90
2022-12-19T14:59:13.602Z,25.43
2022-12-19T15:01:40.982Z,24.70
2022-12-19T15:04:53.140Z,25.63
2022-12-19T15:07:15.217Z,25.43
2022-12-19T15:11:03.347Z,26.37
2022-12-19T15:14:47.323Z,24.50
2022-12-19T15:16:06.498Z,24.53
2022-12-19T15:18:33.570Z,23.67
2022-12-19T15:21:04.181Z,25.13
2022-12-19T15:23:32.763Z,24.53
2022-12-19T15:26:12.004Z,25.13
2022-12-19T15:28:58.427Z,22.40
2022-12-19T15:31:43.292Z,25.57
2022-12-19T15:36:58.501Z,25.10
2022-12-19T15:39:29.453Z,20.57
2022-12-19T15:41:59.662Z,21.93
2022-12-19T15:44:32.519Z,21.27
2022-12-19T15:47:06.355Z,22.40
2022-12-19T15:49:35.213Z,23.60
2022-12-19T15:52:02.976Z,23.47
2022-12-19T15:57:31.979Z,21.73
2022-12-19T16:00:04.352Z,21.97
2022-12-19T16:02:56.862Z,20.73
2022-12-19T16:05:23.031Z,23.47
2022-12-19T16:07:50.379Z,22.23
2022-12-19T16:10:18.857Z,21.70
2022-12-19T16:12:51.983Z,21.33
2022-12-19T16:15:41.079Z,22.17
2022-12-19T16:18:14.009Z,21.10
2022-12-19T16:20:43.149Z,22.20
2022-12-19T16:23:11.754Z,21.50
2022-12-19T16:25:45.681Z,23.70
2022-12-19T16:28:29.464Z,21.33
2022-12-19T16:30:58.840Z,21.93
2022-12-19T16:33:29.733Z,21.00
2022-12-19T16:36:06.511Z,22.00
2022-12-19T16:38:35.491Z,19.87
2022-12-19T16:41:02.939Z,19.80
2022-12-19T16:43:39.232Z,19.90
2022-12-19T16:46:08.644Z,18.70
2022-12-19T16:48:36.003Z,18.97
2022-12-19T16:51:03.691Z,19.60
2022-12-19T16:53:31.160Z,20.40
2022-12-19T16:56:00.141Z,16.50
2022-12-19T16:58:28.938Z,17.60
2022-12-19T17:00:56.799Z,19.97
2022-12-19T17:03:36.415Z,19.33
2022-12-19T17:06:04.380Z,18.93
2022-12-19T17:08:32.502Z,21.27
2022-12-19T17:10:59.917Z,22.00
2022-12-19T17:13:27.320Z,21.20
2022-12-19T17:15:57.293Z,20.00
2022-12-19T17:18:32.492Z,20.50
2022-12-19T17:21:00.051Z,18.03
2022-12-19T17:23:30.138Z,20.47
2022-12-19T17:25:59.418Z,21.10
2022-12-19T17:28:28.274Z,18.47
2022-12-19T17:30:59.363Z,17.67
2022-12-19T17:33:35.710Z,18.37
2022-12-19T17:36:04.455Z,18.73
2022-12-19T17:38:32.241Z,20.30
2022-12-19T17:40:59.682Z,18.70
2022-12-19T17:43:26.817Z,19.70
2022-12-19T17:45:54.007Z,17.50
2022-12-19T17:48:33.475Z,17.73
2022-12-19T17:51:00.622Z,18.30
2022-12-19T17:53:28.437Z,17.70
2022-12-19T17:55:56.115Z,19.27
2022-12-19T17:58:23.470Z,17.27
2022-12-19T18:00:51.860Z,18.53
2022-12-19T18:03:26.161Z,19.30
2022-12-19T18:05:55.892Z,19.77
2022-12-19T18:08:32.342Z,20.53
2022-12-19T18:11:03.172Z,20.70
2022-12-19T18:13:31.604Z,19.87
2022-12-19T18:16:02.381Z,21.30
2022-12-19T18:18:35.471Z,19.77
2022-12-19T18:21:04.668Z,21.00
2022-12-19T18:23:32.397Z,19.03
2022-12-19T18:26:02.366Z,22.07
2022-12-19T18:28:30.485Z,22.50
2022-12-19T18:31:22.908Z,20.30
2022-12-19T18:33:50.522Z,22.53
2022-12-19T18:36:24.622Z,20.27
2022-12-19T18:38:52.904Z,21.83
2022-12-19T18:41:21.110Z,22.60
2022-12-19T18:43:49.282Z,22.70
2022-12-19T18:46:24.667Z,22.27
2022-12-19T18:48:51.834Z,25.30
2022-12-19T18:51:21.712Z,23.17
2022-12-19T18:53:49.570Z,23.23
2022-12-19T18:56:16.782Z,21.50
2022-12-19T18:58:43.922Z,20.40
2022-12-19T19:01:18.186Z,23.03
2022-12-19T19:03:54.933Z,22.90
2022-12-19T19:06:26.290Z,20.93
2022-12-19T19:08:54.114Z,24.23
2022-12-19T19:11:35.334Z,21.33
2022-12-19T19:14:02.400Z,21.63
2022-12-19T19:16:29.861Z,22.70
2022-12-19T19:18:58.801Z,22.00
2022-12-19T19:21:35.229Z,22.73
2022-12-19T19:24:15.929Z,22.47
2022-12-19T19:26:43.118Z,22.70
2022-12-19T19:29:10.985Z,22.13
2022-12-19T19:31:41.443Z,21.90
2022-12-19T19:34:28.319Z,21.27
2022-12-19T19:36:59.348Z,23.10
2022-12-19T19:39:27.919Z,22.17
2022-12-19T19:41:56.346Z,20.87
2022-12-19T19:44:24.828Z,22.00
2022-12-19T19:46:52.092Z,24.60
2022-12-19T19:49:21.425Z,24.80
2022-12-19T19:51:48.600Z,22.10
2022-12-19T19:54:16.030Z,22.97
2022-12-19T19:56:43.187Z,22.40
2022-12-19T19:59:10.757Z,21.87
2022-12-19T20:01:38.063Z,21.60
2022-12-19T20:04:05.471Z,21.97
2022-12-19T20:06:32.795Z,20.00
2022-12-19T20:09:00.044Z,21.03
2022-12-19T20:11:27.716Z,20.43
2022-12-19T20:13:54.741Z,21.00
2022-12-19T20:16:22.721Z,20.77
2022-12-19T20:18:52.311Z,20.60
2022-12-19T20:21:21.418Z,21.27
2022-12-19T20:23:48.776Z,20.47
2022-12-19T20:26:17.380Z,19.37
2022-12-19T20:28:49.377Z,20.23
2022-12-19T20:31:23.127Z,21.53
2022-12-19T20:33:53.229Z,18.83
2022-12-19T20:36:20.671Z,18.67
2022-12-19T20:38:48.625Z,20.43
2022-12-19T20:41:17.300Z,20.83
2022-12-19T20:43:45.244Z,22.13
2022-12-19T20:46:19.767Z,21.53
2022-12-19T20:48:48.387Z,23.20
2022-12-19T20:51:19.323Z,21.37
2022-12-19T20:53:47.217Z,23.77
2022-12-19T20:56:19.428Z,22.83
2022-12-19T20:58:46.926Z,23.03
2022-12-19T21:01:21.088Z,23.23
2022-12-19T21:03:49.039Z,23.93
2022-12-19T21:06:19.846Z,24.23
2022-12-19T21:08:47.803Z,21.67
2022-12-19T21:11:15.923Z,22.53
2022-12-19T21:13:43.258Z,22.60
2022-12-19T21:16:15.141Z,24.40
2022-12-19T21:18:45.431Z,21.93
2022-12-19T21:21:23.238Z,23.77
2022-12-19T21:23:51.683Z,24.43
2022-12-19T21:26:19.808Z,23.93
2022-12-19T21:28:46.882Z,25.03
2022-12-19T21:31:25.284Z,23.40
2022-12-19T21:34:01.251Z,24.23
2022-12-19T21:36:30.234Z,23.60
2022-12-19T21:39:00.514Z,24.80
2022-12-19T21:41:29.341Z,25.13
2022-12-19T21:43:57.004Z,23.80
2022-12-19T21:46:27.777Z,23.30
2022-12-19T21:48:56.739Z,24.77
2022-12-19T21:51:28.324Z,25.90
2022-12-19T21:54:01.571Z,25.30
2022-12-19T21:56:32.551Z,23.47
2022-12-19T21:59:05.625Z,24.87
2022-12-19T22:01:33.858Z,24.40
2022-12-19T22:04:22.738Z,24.50
2022-12-19T22:06:51.290Z,27.53
2022-12-19T22:09:22.444Z,24.80
2022-12-19T22:11:50.028Z,24.37
2022-12-19T22:14:17.925Z,25.30
2022-12-19T22:16:45.269Z,24.10
2022-12-19T22:19:17.747Z,25.37
2022-12-19T22:21:46.778Z,24.67
2022-12-19T22:24:16.219Z,23.60
2022-12-19T22:26:43.691Z,25.60
2022-12-19T22:29:15.018Z,25.80
2022-12-19T22:31:43.356Z,23.47
2022-12-19T22:34:14.221Z,24.47
2022-12-19T22:36:42.920Z,22.70
2022-12-19T22:39:14.678Z,24.17
2022-12-19T22:41:42.684Z,24.93
2022-12-19T22:44:23.065Z,26.07
2022-12-19T22:46:51.050Z,24.40
2022-12-19T22:49:18.335Z,24.63
2022-12-19T22:51:46.320Z,25.00
2022-12-19T22:54:14.075Z,23.23
2022-12-19T22:56:42.225Z,26.07
2022-12-19T22:59:11.929Z,25.13
2022-12-19T23:01:42.720Z,25.73
2022-12-19T23:04:14.221Z,25.37
2022-12-19T23:06:42.102Z,24.50
2022-12-19T23:09:14.301Z,24.73
2022-12-19T23:11:43.173Z,28.27
2022-12-19T23:14:15.155Z,23.90
2022-12-19T23:16:44.259Z,24.33
2022-12-19T23:19:11.842Z,23.20
2022-12-19T23:21:38.948Z,23.13
2022-12-19T23:24:07.160Z,25.63
2022-12-19T23:26:36.968Z,23.10
2022-12-19T23:29:11.061Z,26.73
2022-12-19T23:31:42.456Z,24.23
2022-12-19T23:34:10.627Z,25.17
2022-12-19T23:39:25.574Z,24.67
2022-12-19T23:41:52.634Z,24.20
2022-12-19T23:44:20.210Z,26.17
2022-12-19T23:46:47.330Z,25.50
2022-12-19T23:49:14.445Z,25.43
2022-12-19T23:51:41.514Z,24.03
2022-12-19T23:54:08.909Z,25.50
2022-12-19T23:56:36.625Z,24.23
2022-12-19T23:59:04.082Z,25.83
